This is the latest recevied weather packets stored in our database for station/object OK1FPA-15. If no packets are shown the sender has not sent any weather packets the latest 1 day(s).
| Time | Temp. | Humidity | Pressure | Rain* | Wind** | Luminosity | Snow |
|---|---|---|---|---|---|---|---|
| 1778056062 | 18.89° C | 64% | 1006.3 hPa | - | - | - | - |
| 1778055462 | 18.33° C | 66% | 1006.3 hPa | - | - | - | - |
| 1778053062 | 17.22° C | 73% | 1006.3 hPa | - | - | - | - |
| 1778052462 | 16.67° C | 73% | 1006.4 hPa | - | - | - | - |
| 1778051863 | 16.11° C | 81% | 1006.4 hPa | - | - | - | - |
| 1778051262 | 15.56° C | 82% | 1006.5 hPa | - | - | - | - |
| 1778050062 | 14.44° C | 86% | 1006.3 hPa | - | - | - | - |
| 1778048862 | 13.89° C | 84% | 1006.6 hPa | - | - | - | - |
| 1778045861 | 12.78° C | 88% | 1006.7 hPa | - | - | - | - |
| 1778045262 | 12.78° C | 87% | 1006.5 hPa | - | - | - | - |
| 1778044062 | 12.22° C | 89% | 1006.5 hPa | - | - | - | - |
| 1778043462 | 12.22° C | 90% | 1006.6 hPa | - | - | - | - |
| 1778042862 | 11.67° C | 93% | 1006.7 hPa | - | - | - | - |
| 1778042262 | 10.56° C | 94% | 1006.5 hPa | - | - | - | - |
| 1778041062 | 10° C | 94% | 1006.4 hPa | - | - | - | - |
| 1778040462 | 10° C | 95% | 1006.3 hPa | - | - | - | - |
| 1778039263 | 10° C | 95% | 1006.2 hPa | - | - | - | - |
| 1778038662 | 10° C | 95% | 1006.1 hPa | - | - | - | - |
| 1778038062 | 10° C | 96% | 1006.3 hPa | - | - | - | - |
| 1778037461 | 10° C | 96% | 1006.3 hPa | - | - | - | - |
| 1778036861 | 10° C | 95% | 1006.2 hPa | - | - | - | - |
| 1778036262 | 10.56° C | 95% | 1006.2 hPa | - | - | - | - |
| 1778035661 | 10.56° C | 95% | 1006.2 hPa | - | - | - | - |
| 1778035061 | 10.56° C | 95% | 1006.2 hPa | - | - | - | - |
| 1778034461 | 10.56° C | 94% | 1006.2 hPa | - | - | - | - |
* Rain since midnight (hover to see other rain measurements)
** Current wind speed in m/s (hover to see current wind gust speed)